Tiempo atmosférico en la estación meteorológica de A Pobra de Trives, Ourense (840 m.)

Fecha
DESCASC
Temp. máxima en grados centígrados (hora)
DESCASC
Temp. mínima en grados centígrados (hora)
DESCASC
Temp. media en grados centígrados
DESCASC
Racha de viento máxima en m/sg (hora)
DESCASC
Velocidad máxima media en intervalos de 10 minutos(hora)
DESCASC
Precipitaciones diarias en mm
DESCASC
Precipitaciones de 00:00 a 06:00 en mm
DESCASC
Precipitaciones de 06:00 a 12:00 en mm
DESCASC
Precipitaciones de 12:00 a 18:00 en mm
DESCASC
Precipitaciones de 18:00 a 24:00 en mm
DESCASC
19-10-2017 10.3 (16:30) 4.2 (07:10) 7.3 4.17 (04:10) 2.22 (04:10) 1.4 0 0 0.4 1
18-10-2017 13.4 (14:30) 6.4 (09:40) 9.9 8.06 (14:50) 4.17 (18:10) 7.6 3.4 0.2 2.8 1.2
17-10-2017 17.8 (15:10) 10.7 (11:00) 14.2 10.28 (15:20) 5 (02:50) 4.6 0.6 3.4 0.2 0.4
16-10-2017 23.1 (00:40) 14.3 (23:59) 18.7 12.22 (00:30) 4.72 (00:30) 0 0 0 0 0
15-10-2017 28.3 (14:00) 16.2 (00:00) 22.3 17.22 (15:40) 7.5 (15:40) 0 0 0 0 0
14-10-2017 28.1 (17:00) 8.8 (00:00) 18.5 8.89 (16:50) 2.78 (17:50) 0 0 0 0 0
13-10-2017 25.3 (15:50) 8.1 (00:00) 16.7 6.39 (16:30) 3.33 (00:10) 0 0 0 0 0
12-10-2017 26 (16:40) 7.4 (00:00) 16.7 6.67 (21:50) 3.33 (23:30) 0 0 0 0 0
11-10-2017 25.8 (14:40) 6.8 (00:00) 16.3 10.83 (15:00) 5 (15:00) 0 0 0 0 0
10-10-2017 25.6 (16:00) 5.6 (00:00) 15.6 5.83 (15:20) 3.33 (00:20) 0 0 0 0 0
09-10-2017 26.1 (16:10) 6.5 (00:00) 16.3 6.67 (23:30) 3.89 (23:50) 0 0 0 0 0
08-10-2017 27 (15:50) 7.8 (00:00) 17.4 6.39 (15:40) 3.33 (16:10) 0 0 0 0 0
07-10-2017 27.1 (17:20) 7.3 (00:00) 17.2 6.11 (22:10) 3.06 (09:00) 0 0 0 0 0
06-10-2017 26.1 (16:30) 7.9 (00:00) 17 6.39 (17:50) 3.33 (17:50) 0 0 0 0 0
05-10-2017 28.7 (15:00) 10.6 (00:00) 19.7 7.22 (18:20) 3.89 (21:10) 0 0 0 0 0
04-10-2017 28.7 (16:50) 9.9 (00:00) 19.3 6.11 (13:10) 3.06 (02:10) 0 0 0 0 0
03-10-2017 27.2 (16:00) 11 (00:00) 19.1 6.67 (17:00) 3.33 (23:20) 0 0 0 0 0
02-10-2017 28.7 (16:00) 12.2 (00:00) 20.5 8.33 (17:50) 3.33 (22:40) 0 0 0 0 0
01-10-2017 23.4 (14:30) 10.9 (00:00) 17.1 6.39 (14:20) 3.33 (18:30) 0 0 0 0 0
30-09-2017 19.6 (16:10) 12.7 (00:00) 16.2 9.17 (19:00) 4.17 (17:40) 0 0 0 0 0
29-09-2017 23.5 (13:50) 9.5 (00:00) 16.5 7.78 (17:20) 3.61 (18:00) 0 0 0 0 0
28-09-2017 27.2 (15:20) 10.1 (00:00) 18.7 7.5 (15:20) 3.61 (16:30) 0 0 0 0 0
27-09-2017 25 (17:10) 6.9 (00:00) 16 6.39 (15:10) 3.33 (15:40) 0 0 0 0 0
26-09-2017 23.4 (16:20) 5.4 (00:00) 14.4 7.22 (18:40) 3.33 (22:10) 0 0 0 0 0
25-09-2017 19.4 (16:00) 9.6 (00:00) 14.5 7.22 (17:30) 3.33 (13:30) 0.6 0.6 0 0 0
24-09-2017 26.9 (14:50) 7.1 (00:00) 17 11.94 (17:20) 5 (19:10) 0.6 0 0 0 0.6
23-09-2017 25.7 (14:50) 9.4 (00:00) 17.6 10 (17:50) 3.89 (18:30) 0 0 0 0 0
22-09-2017 22.5 (17:00) 10.8 (00:00) 16.7 7.22 (18:00) 3.06 (17:30) 0 0 0 0 0
21-09-2017 21 (16:20) 9.4 (00:00) 15.2 8.33 (15:30) 3.61 (15:30) 0 0 0 0 0
20-09-2017 24.9 (16:30) 5.8 (00:00) 15.3 7.22 (21:10) 3.33 (21:20) 0 0 0 0 0

Gráficas

Temp. máximas Temp. mínimas Temp. medias Precipitaciones Rachas de viento máximas Velocidades máximas media en intervalos de 10 minutos

Datos horarios

Fecha y hora oficial Temperatura (ºC) Velocidad del viento (km/h) Dirección del viento Racha (km/h) Dirección de racha Precipitación (mm) Presión (hPa) Tendencia (hPa) Humedad (%)
2017-10-19 23:00:00 9.9 2 Nordeste 7 Nordeste 0 919.9 1.2 94
2017-10-19 22:00:00 9.7 3 Este 10 Este 0.2 919.1 1 94
2017-10-19 21:00:00 9.7 3 Este 12 Este 0 918.8 0.9 94
2017-10-19 20:00:00 9.7 3 Este 8 Norte 0 918.7 1.1 93
2017-10-19 19:00:00 9.8 4 Este 8 Nordeste 0.6 918.1 0.7 92
2017-10-19 18:00:00 10 4 Este 7 Este 0 917.9 0.5 92
2017-10-19 17:00:00 10 4 Este 9 Este 0 917.6 -0.2 91
2017-10-19 16:00:00 9.9 4 Nordeste 10 Nordeste 0 917.4 -0.5 92
2017-10-19 15:00:00 9 5 Este 10 Este 0.2 917.4 -0.3 91
2017-10-19 14:00:00 9.4 2 Este 11 Este 0.2 917.8 -0.1 90
2017-10-19 13:00:00 9.1 2 Nordeste 9 Sudeste 0 917.9 1.2 83
2017-10-19 12:00:00 8.2 3 Noroeste 7 Noroeste 0 917.7 1.4 91
2017-10-19 11:00:00 6.6 3 Noroeste 7 Norte 0 917.9 1.6 92
2017-10-19 10:00:00 5.9 4 Noroeste 10 Noroeste 0 916.7 0.4 93
2017-10-19 09:00:00 5.1 2 Este 10 Noroeste 0 916.3 -0.1 93
2017-10-19 08:00:00 4.3 7 Noroeste 12 Noroeste 0 916.3 -0.2 93
2017-10-19 07:00:00 4.3 6 Noroeste 12 Noroeste 0 916.3 -0.2 92
2017-10-19 06:00:00 4.4 3 Noroeste 12 Oeste 0 916.4 0 92
2017-10-19 05:00:00 4.4 6 Noroeste 15 Noroeste 0 916.5 0 93
2017-10-19 04:00:00 4.4 8 Noroeste 14 Noroeste 0 916.5 -0.3 92
2017-10-19 03:00:00 4.8 7 Noroeste 13 Noroeste 0 916.4 -0.5 92
2017-10-19 02:00:00 5.4 6 Noroeste 12 Noroeste 0 916.5 -0.3 92
2017-10-19 01:00:00 6.6 2 Sudoeste 10 Noroeste 0 916.8 -0.2 92
2017-10-19 00:00:00 6.5 5 Oeste 12 Noroeste 0 916.9 0.4 91
2017-10-18 23:00:00 7.4 4 Oeste 8 Oeste 0 916.8 0.5 91
2017-10-18 22:00:00 8 2 Oeste 13 Oeste 0 917 1.8 91
2017-10-18 21:00:00 8.3 6 Oeste 12 Oeste 1.2 916.5 1.5 88
2017-10-18 20:00:00 9.6 5 Noroeste 19 Oeste 0 916.3 1.2 83
2017-10-18 19:00:00 11 10 Oeste 28 Oeste 0 915.2 0 79
2017-10-18 18:00:00 11.5 13 Oeste 27 Oeste 0 915 -0.3 79
2017-10-18 17:00:00 11.5 7 Oeste 24 Oeste 0 915.1 -0.7 83
2017-10-18 16:00:00 11.2 10 Oeste 27 Oeste 1.4 915.2 -0.6 83
2017-10-18 15:00:00 12.1 8 Oeste 29 Oeste 1.4 915.3 -0.6 85
2017-10-18 14:00:00 12 10 Oeste 28 Oeste 0 915.8 -0.2 71
2017-10-18 13:00:00 12 7 Oeste 24 Sudoeste 0 915.8 0.1 74
2017-10-18 12:00:00 11 8 Sudoeste 17 Oeste 0 915.9 0.8 74
2017-10-18 11:00:00 9.4 3 Este 6 Sudeste 0 916 1 88
2017-10-18 10:00:00 6.9 5 Norte 15 Oeste 0 915.7 0.7 91
2017-10-18 09:00:00 7.1 6 Oeste 13 Oeste 0 915.1 0.1 91
2017-10-18 08:00:00 8.4 2 Este 9 Norte 0.2 915 -0.8 91
2017-10-18 07:00:00 8.8 3 Sudeste 8 Sudeste 0 915 -1.1 92
2017-10-18 06:00:00 8.8 4 Este 18 Oeste 0.8 915 -1.4 90
2017-10-18 05:00:00 9.5 4 Oeste 12 Sudoeste 1.6 915.8 -1.2 92
2017-10-18 04:00:00 9.5 4 Norte 13 Norte 0.2 916.1 -1.6 91
2017-10-18 03:00:00 9.4 6 Nordeste 17 Nordeste 0 916.4 -1.9 91
2017-10-18 02:00:00 9.8 4 Oeste 14 Noroeste 0.2 917 -1.5 89
2017-10-18 01:00:00 9.9 5 Este 12 Este 0.6 917.7 -0.7 90
2017-10-18 00:00:00 10.9 3 Nordeste 8 Norte 0.4 918.3 -0.6 82
2017-10-17 23:00:00 11.7 3 Sudeste 12 Sudeste 0 918.5 -0.6 69
2017-10-17 22:00:00 12.1 5 Sudeste 14 Sudeste 0 918.4 -0.7 61
2017-10-17 21:00:00 12.4 3 Sur 19 Oeste 0 918.9 -0.1 58
2017-10-17 20:00:00 12.6 5 Sudoeste 19 Sudoeste 0 919.1 0 59
2017-10-17 19:00:00 14.5 8 Sudoeste 30 Sudoeste 0 919.1 -0.3 50
2017-10-17 18:00:00 15.8 13 Sudoeste 32 Oeste 0 919 -1.1 46
2017-10-17 17:00:00 16.6 13 Sudoeste 34 Sudoeste 0 919.1 -1.7 42
2017-10-17 16:00:00 16.2 12 Oeste 37 Oeste 0 919.4 -1.9 49
2017-10-17 15:00:00 17.7 11 Sudoeste 28 Sudoeste 0 920.1 -1.2 50
2017-10-17 14:00:00 15 13 Sudoeste 26 Sudoeste 0 920.8 -0.5 65
2017-10-17 13:00:00 12.8 9 Oeste 18 Oeste 0.2 921.3 0.1 82
2017-10-17 12:00:00 12.1 10 Oeste 25 Oeste 0 921.3 0.4 87
2017-10-17 11:00:00 10.7 10 Noroeste 21 Oeste 0 921.3 0.7 91
2017-10-17 10:00:00 10.9 12 Oeste 26 Oeste 0 921.2 0.5 91
2017-10-17 09:00:00 11.9 11 Oeste 23 Oeste 0.2 920.9 -0.1 91
2017-10-17 08:00:00 12.6 5 Norte 15 Nordeste 1.4 920.6 -0.4 90
2017-10-17 07:00:00 13.1 6 Norte 31 Sudoeste 1.8 920.7 -0.7 88
2017-10-17 06:00:00 14.8 7 Sudoeste 23 Sudeste 0.6 921 -1.1 80
2017-10-17 05:00:00 16.1 11 Sudeste 29 Sudeste 0 921 -1.9 65
2017-10-17 04:00:00 16.5 12 Sudeste 36 Sur 0 921.4 -2.1 56
2017-10-17 03:00:00 16.4 15 Sudeste 37 Sudeste 0 922.1 -2 55
2017-10-17 02:00:00 14.5 4 Nordeste 8 Nordeste 0 922.9 -1.4 59
2017-10-17 01:00:00 14.3 2 Nordeste 8 Noroeste 0 923.5 -1.1 61
2017-10-17 00:00:00 14.3 4 Sudoeste 7 Sudoeste 0 924.1 -0.6 60
2017-10-16 23:00:00 15.1 5 Nordeste 9 Este 0 924.3 -0.3 56
2017-10-16 22:00:00 16.2 5 Este 13 Sudeste 0 924.6 -0.1 49
2017-10-16 21:00:00 16.8 6 Sudeste 32 Sudeste 0 924.7 -0.2 48
2017-10-16 20:00:00 17.6 10 Sudeste 25 Sur 0 924.6 -0.4 41
2017-10-16 19:00:00 18 5 Nordeste 15 Este 0 924.7 -0.6 42
2017-10-16 18:00:00 18 5 Norte 11 Nordeste 0 924.9 -0.5 52
2017-10-16 17:00:00 18.1 4 Sudeste 13 Este 0 925 -0.9 53
2017-10-16 16:00:00 17.7 3 Sudeste 14 Sudeste 0 925.3 -0.6 53
2017-10-16 15:00:00 17.3 6 Norte 15 Este 0 925.4 -0.3 57
2017-10-16 14:00:00 17.3 3 Norte 9 Nordeste 0 925.9 0.4 64
2017-10-16 13:00:00 17.4 2 Norte 7 Norte 0 925.9 0.7 68
2017-10-16 12:00:00 17.3 3 Nordeste 9 Sudoeste 0 925.7 1.2 69
2017-10-16 11:00:00 17.1 3 Nordeste 8 Nordeste 0 925.5 1.3 70
2017-10-16 10:00:00 16.7 3 Norte 10 Nordeste 0 925.2 1.4 70
2017-10-16 09:00:00 17.2 3 Norte 15 Sudoeste 0 924.5 0.9 64
2017-10-16 08:00:00 16.9 4 Oeste 13 Nordeste 0 924.2 0.7 61
2017-10-16 07:00:00 18.1 6 Nordeste 25 Sudoeste 0 923.8 0.4 56
2017-10-16 06:00:00 18.5 12 Sudoeste 33 Sudoeste 0 923.6 0.7 57
2017-10-16 05:00:00 19.5 13 Sudoeste 34 Sudoeste 0 923.5 0.4 46
2017-10-16 04:00:00 20.1 9 Sudoeste 37 Sudoeste 0 923.4 0.5 35
2017-10-16 03:00:00 21.3 15 Sudoeste 40 Sudoeste 0 922.9 0.2 30
2017-10-16 02:00:00 22 9 Sudoeste 35 Sudoeste 0 923.1 0 28
2017-10-16 01:00:00 22.9 14 Sur 44 Sur 0 922.9 -0.3 27
2017-10-16 00:00:00 22.8 17 Sur 41 Sur 0 922.7 -0.6 29
2017-10-15 23:00:00 22.5 13 Sudeste 30 Sur 0 923.1 -0.4 29
2017-10-15 22:00:00 21.9 12 Sudeste 22 Sudeste 0 923.2 0 31
2017-10-15 21:00:00 21.7 7 Sudeste 35 Sudeste 0 923.3 -0.1 32
2017-10-15 20:00:00 23.5 13 Sur 40 Sur 0 923.5 -0.3 27
2017-10-15 19:00:00 24.4 15 Sur 37 Sudeste 0 923.2 -1.4 26
2017-10-15 18:00:00 24.8 16 Sudeste 53 Sur 0 923.4 -1.4 26
2017-10-15 17:00:00 26 23 Sur 62 Sur 0 923.8 -1.8 24
2017-10-15 16:00:00 26.8 25 Sur 62 Sur 0 924.6 -1.8 22
2017-10-15 15:00:00 27.4 24 Sur 58 Sur 0 924.8 -2.2 22
2017-10-15 14:00:00 28.3 19 Sur 52 Sur 0 925.6 -1.5 21
2017-10-15 13:00:00 21.4 8 Este 24 Nordeste 0 926.4 -0.4 36
2017-10-15 12:00:00 17.9 7 Este 12 Este 0 927 0.6 46
2017-10-15 11:00:00 17.3 5 Este 12 Sudoeste 0 927.1 0.6 45
2017-10-15 10:00:00 16.6 4 Nordeste 8 Nordeste 0 926.8 0.2 46
2017-10-15 09:00:00 16.3 5 Sur 9 Sudeste 0 926.4 0 45
2017-10-15 08:00:00 16.7 4 Norte 10 Este 0 926.5 0 43
2017-10-15 07:00:00 16.6 3 Oeste 15 Norte 0 926.6 -0.3 44
2017-10-15 06:00:00 17 4 Norte 12 Sur 0 926.4 -0.7 42
2017-10-15 05:00:00 17.2 4 Noroeste 10 Norte 0 926.5 -0.7 41
2017-10-15 04:00:00 17.1 5 Noroeste 12 Oeste 0 926.9 -0.6 41
2017-10-15 03:00:00 17.7 2 Noroeste 10 Norte 0 927.1 -0.4 39
2017-10-15 02:00:00 18.3 3 Nordeste 14 Norte 0 927.2 -0.1 38
2017-10-15 01:00:00 18.2 3 Norte 12 Nordeste 0 927.5 0.3 36
2017-10-15 00:00:00 18.3 4 Noroeste 14 Norte 0 927.5 0.3 35
2017-10-14 23:00:00 18.8 8 Norte 15 Noroeste 0 927.3 0.2 34
2017-10-14 22:00:00 19.2 4 Noroeste 12 Oeste 0 927.2 0.4 33
2017-10-14 21:00:00 20.9 3 Este 12 Norte 0 927.2 0.7 30
2017-10-14 20:00:00 22.5 2 Sudeste 19 Oeste 0 927.1 0.6 26
2017-10-14 19:00:00 25.1 8 Sudoeste 24 Oeste 0 926.8 0.1 23
2017-10-14 18:00:00 26.1 9 Sudoeste 24 Oeste 0 926.5 -0.5 22
2017-10-14 17:00:00 27.9 8 Sudoeste 32 Sudoeste 0 926.5 -1.1 19
2017-10-14 16:00:00 27.3 6 Este 15 Este 0 926.7 -1.5 22
2017-10-14 15:00:00 25.9 5 Este 14 Este 0 927 -1.6 26
2017-10-14 14:00:00 23.4 5 Este 13 Este 0 927.6 -1 29
2017-10-14 13:00:00 21.1 6 Este 14 Este 0 928.2 -0.2 34
2017-10-14 12:00:00 18.6 6 Este 10 Este 0 928.6 0.8 40
2017-10-14 11:00:00 15.2 3 Nordeste 10 Noroeste 0 928.6 1.1 52
2017-10-14 10:00:00 12.3 4 Oeste 10 Norte 0 928.4 0.9 59
2017-10-14 09:00:00 9.5 4 Oeste 13 Norte 0 927.8 0.2 67
2017-10-14 08:00:00 9.1 8 Norte 12 Noroeste 0 927.5 -0.2 68
2017-10-14 07:00:00 9.3 6 Noroeste 13 Noroeste 0 927.5 -0.5 67
2017-10-14 06:00:00 9.4 5 Noroeste 15 Noroeste 0 927.6 -0.6 68
2017-10-14 05:00:00 9.4 6 Noroeste 15 Norte 0 927.7 -0.8 68
2017-10-14 04:00:00 9.8 9 Noroeste 17 Noroeste 0 928 -0.7 67
2017-10-14 03:00:00 9.8 9 Noroeste 14 Noroeste 0 928.2 -0.6 68
2017-10-14 02:00:00 10.5 9 Noroeste 14 Noroeste 0 928.5 -0.4 65
2017-10-14 01:00:00 11 8 Noroeste 13 Noroeste 0 928.7 -0.1 63
2017-10-14 00:00:00 12.4 8 Noroeste 20 Oeste 0 928.8 0.1 58
2017-10-13 23:00:00 13.5 9 Noroeste 18 Oeste 0 928.9 0.7 56
2017-10-13 22:00:00 15.5 7 Oeste 22 Oeste 0 928.8 0.8 47
2017-10-13 21:00:00 17 10 Oeste 18 Sudoeste 0 928.7 0.9 41
2017-10-13 20:00:00 18.3 6 Oeste 12 Sudoeste 0 928.2 0.3 38
2017-10-13 19:00:00 21.4 6 Oeste 17 Oeste 0 928 0 31
2017-10-13 18:00:00 23.3 7 Noroeste 21 Noroeste 0 927.8 -0.6 26
2017-10-13 17:00:00 24.8 11 Oeste 23 Noroeste 0 927.9 -1 23
2017-10-13 16:00:00 25.1 8 Noroeste 18 Norte 0 928 -1.4 24
2017-10-13 15:00:00 24.3 6 Este 14 Este 0 928.4 -1.3 25
2017-10-13 14:00:00 23.2 6 Sudeste 13 Este 0 928.9 -0.6 27
2017-10-13 13:00:00 21.2 5 Sudeste 10 Sudeste 0 929.4 0.3 34
2017-10-13 12:00:00 16.1 0 Calma 4 Sudeste 0 929.7 1 38
2017-10-13 11:00:00 14.7 3 Sur 8 Noroeste 0 929.5 1 44
2017-10-13 10:00:00 11.8 5 Noroeste 13 Noroeste 0 929.1 0.7 57
2017-10-13 09:00:00 8.5 8 Noroeste 18 Noroeste 0 928.7 0.3 65
2017-10-13 08:00:00 9 9 Noroeste 15 Noroeste 0 928.5 0 61
2017-10-13 07:00:00 9.3 8 Noroeste 15 Oeste 0 928.4 -0.2 59
2017-10-13 06:00:00 10.1 9 Noroeste 14 Noroeste 0 928.4 -0.2 55
2017-10-13 05:00:00 10.5 10 Noroeste 15 Noroeste 0 928.5 -0.3 54
2017-10-13 04:00:00 11.1 8 Noroeste 16 Noroeste 0 928.6 -0.3 53
2017-10-13 03:00:00 11.8 10 Noroeste 19 Noroeste 0 928.6 0 51
2017-10-13 02:00:00 11.7 10 Noroeste 17 Noroeste 0 928.8 0.2 53
2017-10-13 01:00:00 13.4 9 Noroeste 20 Noroeste 0 928.9 0.4 48
2017-10-13 00:00:00 14.6 11 Oeste 23 Oeste 0 928.6 0.4 44
2017-10-12 23:00:00 15 11 Oeste 20 Noroeste 0 928.6 0.6 44
2017-10-12 22:00:00 16.5 10 Oeste 24 Oeste 0 928.5 0.8 40
2017-10-12 21:00:00 18.1 8 Oeste 16 Noroeste 0 928.2 0.9 35
2017-10-12 20:00:00 19.9 8 Oeste 17 Oeste 0 928 0.6 30
2017-10-12 19:00:00 22.3 5 Oeste 14 Oeste 0 927.7 0.1 28
2017-10-12 18:00:00 24.3 5 Nordeste 14 Sudeste 0 927.3 -0.9 21
2017-10-12 17:00:00 25.7 6 Este 15 Este 0 927.4 -1.4 20
2017-10-12 16:00:00 25.5 7 Este 17 Este 0 927.6 -1.7 20
2017-10-12 15:00:00 24.7 8 Sudeste 14 Sudeste 0 928.2 -1.1 23
2017-10-12 14:00:00 23.2 6 Este 12 Este 0 928.8 -0.6 23
2017-10-12 13:00:00 20.6 6 Este 12 Este 0 929.3 0.3 27
2017-10-12 12:00:00 17.9 4 Este 9 Noroeste 0 929.3 0.7 37
2017-10-12 11:00:00 14.2 4 Noroeste 9 Noroeste 0 929.4 1.1 45
2017-10-12 10:00:00 11.4 4 Noroeste 11 Noroeste 0 929 0.9 53
2017-10-12 09:00:00 7.8 5 Noroeste 11 Noroeste 0 928.6 0.7 60
2017-10-12 08:00:00 8 6 Noroeste 15 Noroeste 0 928.3 0.4 58
2017-10-12 07:00:00 8.7 8 Noroeste 13 Noroeste 0 928.1 0.2 58
2017-10-12 06:00:00 9.3 12 Noroeste 15 Noroeste 0 927.9 0 54
2017-10-12 05:00:00 10.1 3 Oeste 11 Noroeste 0 927.9 0 50
2017-10-12 04:00:00 10.8 3 Noroeste 15 Noroeste 0 927.9 0.1 48
2017-10-12 03:00:00 10.2 8 Noroeste 14 Noroeste 0 927.9 0 53
2017-10-12 02:00:00 10.2 8 Noroeste 15 Noroeste 0 927.9 -0.1 56
2017-10-12 01:00:00 11.1 8 Noroeste 14 Noroeste 0 927.8 0.4 57
2017-10-12 00:00:00 12.3 5 Oeste 16 Noroeste 0 927.9 0.9 61
2017-10-11 23:00:00 12.4 10 Noroeste 17 Noroeste 0 928 1.3 55
2017-10-11 22:00:00 14.5 9 Oeste 18 Oeste 0 927.4 1 48
2017-10-11 21:00:00 16.1 10 Oeste 17 Oeste 0 927 1 43
2017-10-11 20:00:00 17.9 6 Oeste 21 Oeste 0 926.7 0.9 37
2017-10-11 19:00:00 20.8 10 Oeste 25 Sudoeste 0 926.4 0.8 31
2017-10-11 18:00:00 22.7 14 Oeste 29 Oeste 0 926 0.2 24
2017-10-11 17:00:00 24.4 14 Oeste 36 Oeste 0 925.8 -0.2 14
2017-10-11 16:00:00 25.1 11 Oeste 35 Oeste 0 925.6 -0.7 14
2017-10-11 15:00:00 25.5 18 Oeste 39 Oeste 0 925.8 -0.6 12
2017-10-11 14:00:00 24.7 10 Sudoeste 35 Sudoeste 0 926 -0.3 13
2017-10-11 13:00:00 20.7 6 Este 13 Este 0 926.3 0.5 21
2017-10-11 12:00:00 18.1 5 Este 10 Sudeste 0 926.4 1.1 25
2017-10-11 11:00:00 14.7 3 Sudeste 13 Oeste 0 926.3 1.3 33
2017-10-11 10:00:00 11.1 7 Noroeste 17 Noroeste 0 925.8 0.9 37
2017-10-11 09:00:00 7.1 8 Noroeste 15 Noroeste 0 925.3 0.5 47
2017-10-11 08:00:00 7 8 Noroeste 12 Noroeste 0 925 0.2 46
2017-10-11 07:00:00 7.5 6 Noroeste 13 Oeste 0 924.9 0 44
2017-10-11 06:00:00 8.5 8 Noroeste 13 Noroeste 0 924.8 -0.3 40
2017-10-11 05:00:00 9.4 7 Noroeste 14 Noroeste 0 924.8 -0.5 37
2017-10-11 04:00:00 10.2 9 Noroeste 16 Noroeste 0 924.9 -0.5 34
2017-10-11 03:00:00 10.4 10 Noroeste 17 Noroeste 0 925.1 -0.4 35
2017-10-11 02:00:00 10.5 11 Noroeste 18 Noroeste 0 925.3 -0.1 37
2017-10-11 01:00:00 11.1 9 Noroeste 17 Noroeste 0 925.4 0.4 36
2017-10-11 00:00:00 11.6 9 Noroeste 17 Oeste 0 925.5 1 34
2017-10-10 23:00:00 12.5 10 Noroeste 17 Oeste 0 925.4 1.2 32
2017-10-10 22:00:00 14.2 9 Oeste 20 Oeste 0 925 1.1 27
2017-10-10 21:00:00 15.7 9 Oeste 16 Oeste 0 924.5 0.9 23
2017-10-10 20:00:00 18.4 7 Oeste 10 Oeste 0 924.2 0.3 20
2017-10-10 19:00:00 21.8 4 Noroeste 16 Noroeste 0 923.9 -0.2 14
2017-10-10 18:00:00 23.7 9 Norte 20 Noroeste 0 923.6 -1 13
2017-10-10 17:00:00 25.2 5 Norte 19 Norte 0 923.9 -1.4 12
2017-10-10 16:00:00 25.5 7 Nordeste 21 Este 0 924.1 -1.6 11
2017-10-10 15:00:00 25.4 8 Este 17 Este 0 924.6 -1.3 13
2017-10-10 14:00:00 23.9 7 Este 12 Sudeste 0 925.3 -0.8 22
2017-10-10 13:00:00 21.4 5 Este 11 Noroeste 0 925.7 -0.2 28
2017-10-10 12:00:00 18.1 4 Norte 10 Norte 0 925.9 0.6 34
2017-10-10 11:00:00 14 4 Norte 10 Noroeste 0 926.1 1.2 39
2017-10-10 10:00:00 10.2 6 Noroeste 13 Noroeste 0 925.9 1.2 44
2017-10-10 09:00:00 6.3 9 Noroeste 14 Noroeste 0 925.3 0.9 53
2017-10-10 08:00:00 6.6 9 Noroeste 14 Noroeste 0 924.9 0.4 51
2017-10-10 07:00:00 6.6 9 Noroeste 13 Noroeste 0 924.7 -0.1 52
2017-10-10 06:00:00 6.9 7 Noroeste 12 Noroeste 0 924.4 -0.7 51
2017-10-10 05:00:00 7.9 8 Noroeste 14 Noroeste 0 924.5 -0.7 47
2017-10-10 04:00:00 8.3 8 Noroeste 14 Noroeste 0 924.8 -0.6 47
2017-10-10 03:00:00 9.2 10 Noroeste 15 Noroeste 0 925.1 -0.2 44
2017-10-10 02:00:00 10.1 9 Noroeste 17 Noroeste 0 925.2 0 42
2017-10-10 01:00:00 11.1 6 Oeste 20 Noroeste 0 925.4 0.5 39
2017-10-10 00:00:00 11.7 14 Noroeste 24 Noroeste 0 925.3 0.4 38
2017-10-09 23:00:00 12.7 8 Noroeste 20 Oeste 0 925.2 0.6 37
2017-10-09 22:00:00 15.4 11 Oeste 20 Oeste 0 924.9 0.7 32
2017-10-09 21:00:00 17.5 10 Oeste 20 Oeste 0 924.9 0.7 26
2017-10-09 20:00:00 19.1 8 Sudoeste 19 Noroeste 0 924.6 0.2 31
2017-10-09 19:00:00 22.1 10 Oeste 22 Oeste 0 924.2 -0.4 21
2017-10-09 18:00:00 24 6 Oeste 22 Oeste 0 924.2 -0.9 13
2017-10-09 17:00:00 25.6 9 Noroeste 22 Noroeste 0 924.4 -1.4 17
2017-10-09 16:00:00 26 8 Oeste 20 Oeste 0 924.6 -1.6 14
2017-10-09 15:00:00 25 5 Sudoeste 11 Sudeste 0 925.1 -1.2 16
2017-10-09 14:00:00 23.7 5 Este 11 Sudeste 0 925.8 -0.6 22
2017-10-09 13:00:00 21.4 4 Nordeste 11 Nordeste 0 926.2 0.1 26
2017-10-09 12:00:00 19.1 6 Este 11 Sudeste 0 926.3 0.6 29
2017-10-09 11:00:00 15.4 4 Este 10 Oeste 0 926.4 1 34
2017-10-09 10:00:00 11.2 6 Noroeste 13 Oeste 0 926.1 0.9 43
2017-10-09 09:00:00 7 9 Noroeste 13 Oeste 0 925.7 0.5 53
2017-10-09 08:00:00 6.6 9 Noroeste 14 Noroeste 0 925.4 0.2 52
2017-10-09 07:00:00 7.2 8 Noroeste 14 Noroeste 0 925.2 -0.2 50
2017-10-09 06:00:00 8.1 10 Noroeste 16 Noroeste 0 925.2 -0.4 49
2017-10-09 05:00:00 8.8 9 Noroeste 13 Oeste 0 925.2 -0.4 48
2017-10-09 04:00:00 9.7 9 Noroeste 14 Noroeste 0 925.4 -0.5 44
2017-10-09 03:00:00 10.1 10 Noroeste 17 Noroeste 0 925.6 -0.3 45
2017-10-09 02:00:00 10.6 11 Noroeste 17 Noroeste 0 925.6 -0.3 47
2017-10-09 01:00:00 12.1 10 Noroeste 17 Noroeste 0 925.9 0.2 42
2017-10-09 00:00:00 12.2 11 Noroeste 21 Oeste 0 925.9 0.4 45
2017-10-08 23:00:00 14.4 12 Noroeste 21 Noroeste 0 925.9 0.8 36
2017-10-08 22:00:00 16.3 10 Oeste 17 Oeste 0 925.7 0.9 36
2017-10-08 21:00:00 17.6 7 Oeste 18 Sudoeste 0 925.5 1 31
2017-10-08 20:00:00 19.8 6 Oeste 17 Oeste 0 925.1 0.3 27
2017-10-08 19:00:00 23.1 8 Oeste 22 Noroeste 0 924.8 -0.2 18
2017-10-08 18:00:00 25.1 9 Oeste 23 Noroeste 0 924.5 -1 15
2017-10-08 17:00:00 26.5 12 Oeste 21 Noroeste 0 924.8 -1.3 14
2017-10-08 16:00:00 26.9 9 Oeste 23 Oeste 0 925 -1.3 15
2017-10-08 15:00:00 26.3 6 Este 15 Nordeste 0 925.5 -1 16
2017-10-08 14:00:00 25.2 5 Sudeste 12 Sudeste 0 926.1 -0.3 22
2017-10-08 13:00:00 22.4 4 Este 12 Sudeste 0 926.3 0.1 27
2017-10-08 12:00:00 19.5 5 Este 10 Sudeste 0 926.5 0.8 27
2017-10-08 11:00:00 16.1 3 Este 7 Este 0 926.4 0.8 43
2017-10-08 10:00:00 12.4 2 Norte 12 Noroeste 0 926.2 0.5 49
2017-10-08 09:00:00 8.6 8 Noroeste 14 Oeste 0 925.7 0.3 61
2017-10-08 08:00:00 8.2 9 Noroeste 12 Noroeste 0 925.6 0.2 63
2017-10-08 07:00:00 8.4 7 Noroeste 14 Oeste 0 925.7 0.2 62
2017-10-08 06:00:00 9.2 9 Noroeste 14 Noroeste 0 925.4 -0.1 60
2017-10-08 05:00:00 10 9 Noroeste 14 Noroeste 0 925.4 -0.1 58
2017-10-08 04:00:00 10.4 9 Noroeste 15 Noroeste 0 925.5 -0.3 57
2017-10-08 03:00:00 11.5 9 Noroeste 17 Noroeste 0 925.5 -0.4 53
2017-10-08 02:00:00 11.9 10 Noroeste 18 Noroeste 0 925.5 -0.2 52
2017-10-08 01:00:00 12.5 10 Noroeste 19 Oeste 0 925.8 0.6 52
2017-10-08 00:00:00 13.4 10 Noroeste 21 Noroeste 0 925.9 0.7 49
2017-10-07 23:00:00 15.7 9 Noroeste 22 Oeste 0 925.7 0.7 41
2017-10-07 22:00:00 17.4 10 Oeste 21 Oeste 0 925.2 0.5 34
2017-10-07 21:00:00 18.8 9 Oeste 16 Oeste 0 925.2 0.6 31
2017-10-07 20:00:00 20.9 8 Oeste 17 Sudoeste 0 925 0.3 30
2017-10-07 19:00:00 23.3 8 Oeste 19 Oeste 0 924.7 -0.5 25
2017-10-07 18:00:00 25.5 10 Oeste 19 Oeste 0 924.6 -1.3 26
2017-10-07 17:00:00 26.8 3 Este 14 Sudeste 0 924.7 -1.8 18
2017-10-07 16:00:00 26.3 6 Sudeste 15 Este 0 925.2 -1.7 15
2017-10-07 15:00:00 25.2 6 Este 14 Sudeste 0 925.9 -1.2 18
2017-10-07 14:00:00 23.5 5 Sudeste 12 Este 0 926.5 -0.7 30
2017-10-07 13:00:00 21.1 6 Este 14 Nordeste 0 926.9 -0.3 35
2017-10-07 12:00:00 18.2 6 Este 12 Este 0 927.1 0.1 45
2017-10-07 11:00:00 15.8 4 Este 12 Sudeste 0 927.2 0.1 53
2017-10-07 10:00:00 12.5 2 Nordeste 13 Noroeste 0 927.2 0.3 67
2017-10-07 09:00:00 8.2 11 Noroeste 13 Noroeste 0 927 0.2 80
2017-10-07 08:00:00 7.6 6 Noroeste 11 Noroeste 0 927.1 0.4 81
2017-10-07 07:00:00 8.2 7 Noroeste 12 Noroeste 0 926.9 -0.2 80
2017-10-07 06:00:00 9 8 Noroeste 13 Noroeste 0 926.8 -0.4 77
2017-10-07 05:00:00 9.5 9 Noroeste 12 Noroeste 0 926.7 -0.6 77
2017-10-07 04:00:00 10.4 7 Noroeste 12 Noroeste 0 927.1 -0.4 75
2017-10-07 03:00:00 11.2 8 Noroeste 13 Noroeste 0 927.2 -0.2 72
2017-10-07 02:00:00 12 9 Noroeste 16 Noroeste 0 927.3 0.3 71
2017-10-07 01:00:00 13 8 Noroeste 12 Noroeste 0 927.5 0.7 68
2017-10-07 00:00:00 13.8 8 Noroeste 15 Noroeste 0 927.4 0.8 67
2017-10-06 23:00:00 15 9 Noroeste 21 Oeste 0 927 0.7 64
2017-10-06 22:00:00 16.7 10 Noroeste 22 Oeste 0 926.8 0.7 60
2017-10-06 21:00:00 18.3 8 Oeste 17 Oeste 0 926.6 0.5 58
2017-10-06 20:00:00 20.1 7 Oeste 18 Oeste 0 926.3 0.2 51
2017-10-06 19:00:00 22.6 8 Oeste 19 Noroeste 0 926.1 -0.4 39
2017-10-06 18:00:00 24.3 10 Oeste 23 Oeste 0 926.1 -1 38
2017-10-06 17:00:00 25.9 9 Oeste 21 Noroeste 0 926.1 -1.7 38
2017-10-06 16:00:00 25.9 5 Este 14 Este 0 926.5 -1.7 28
2017-10-06 15:00:00 24.8 5 Este 14 Sudeste 0 927.1 -1.2 32
2017-10-06 14:00:00 23.1 4 Sudeste 12 Sudeste 0 927.8 -0.4 37
2017-10-06 13:00:00 20.5 7 Este 14 Este 0 928.2 0.3 46
2017-10-06 12:00:00 18 7 Este 13 Este 0 928.3 0.9 55
2017-10-06 11:00:00 16.2 5 Sudeste 9 Sudeste 0 928.2 0.9 60
2017-10-06 10:00:00 12.8 0 Calma 11 Noroeste 0 927.9 0.8 62
2017-10-06 09:00:00 8.9 8 Noroeste 11 Noroeste 0 927.4 0.4 70
2017-10-06 08:00:00 8.1 5 Oeste 10 Oeste 0 927.3 0.3 74
2017-10-06 07:00:00 8.4 5 Noroeste 10 Noroeste 0 927.1 0 69
2017-10-06 06:00:00 8.5 4 Oeste 10 Oeste 0 927 -0.3 69
2017-10-06 05:00:00 9.7 7 Noroeste 10 Noroeste 0 927 -0.4 72
2017-10-06 04:00:00 9.9 4 Noroeste 14 Noroeste 0 927.1 -0.3 65
2017-10-06 03:00:00 10.9 8 Noroeste 12 Noroeste 0 927.3 -0.2 67
2017-10-06 02:00:00 12.1 8 Noroeste 14 Noroeste 0 927.4 0.1 64
2017-10-06 01:00:00 12.8 8 Oeste 16 Noroeste 0 927.4 0.1 66
2017-10-06 00:00:00 14.8 6 Oeste 21 Noroeste 0 927.5 0.5 67
2017-10-05 23:00:00 15.1 10 Noroeste 23 Oeste 0 927.3 0.5 65
2017-10-05 22:00:00 16.6 9 Noroeste 25 Noroeste 0 927.3 0.6 64
2017-10-05 21:00:00 19.4 13 Oeste 25 Oeste 0 927 0.4 65
2017-10-05 20:00:00 21.4 9 Oeste 17 Sudoeste 0 926.8 0.1 49
2017-10-05 19:00:00 23.8 5 Oeste 26 Noroeste 0 926.7 -0.2 35
2017-10-05 18:00:00 25.7 9 Oeste 25 Noroeste 0 926.6 -0.6 25
2017-10-05 17:00:00 26.9 10 Noroeste 24 Oeste 0 926.7 -0.9 23
2017-10-05 16:00:00 27.7 10 Noroeste 22 Noroeste 0 926.9 -1.2 30
2017-10-05 15:00:00 28.6 8 Noroeste 21 Noroeste 0 927.2 -1.2 23
2017-10-05 14:00:00 26.5 5 Este 13 Este 0 927.6 -0.7 31
2017-10-05 13:00:00 24.7 7 Este 12 Norte 0 928.1 0.3 34
2017-10-05 12:00:00 22.1 5 Este 9 Este 0 928.4 0.9 40
2017-10-05 11:00:00 18.6 4 Este 8 Noroeste 0 928.3 1 56
2017-10-05 10:00:00 15.1 4 Oeste 13 Noroeste 0 927.8 1.1 64
2017-10-05 09:00:00 11.6 9 Noroeste 15 Noroeste 0 927.5 0.8 74
2017-10-05 08:00:00 11.3 5 Oeste 13 Noroeste 0 927.3 0.5 73
2017-10-05 07:00:00 11.3 8 Noroeste 13 Noroeste 0 926.7 -0.1 75
2017-10-05 06:00:00 11.7 9 Noroeste 13 Noroeste 0 926.7 -0.6 74
2017-10-05 05:00:00 12.1 9 Noroeste 17 Noroeste 0 926.8 -0.5 72
2017-10-05 04:00:00 13.1 11 Noroeste 15 Noroeste 0 926.8 -0.5 69
2017-10-05 03:00:00 13.6 9 Noroeste 15 Noroeste 0 927.3 0 68
2017-10-05 02:00:00 14.1 9 Noroeste 17 Noroeste 0 927.3 0 68
2017-10-05 01:00:00 14.9 10 Noroeste 16 Noroeste 0 927.3 0.6 68
2017-10-05 00:00:00 15.5 11 Noroeste 19 Noroeste 0 927.3 0.9 69
2017-10-04 23:00:00 16.4 9 Noroeste 17 Noroeste 0 927.3 1.3 67
2017-10-04 22:00:00 18.2 11 Noroeste 18 Oeste 0 926.7 1.2 60
2017-10-04 21:00:00 21.4 8 Oeste 22 Sudoeste 0 926.4 1.2 49
2017-10-04 20:00:00 22.7 10 Oeste 18 Oeste 0 926 0.9 44
2017-10-04 19:00:00 25.3 6 Oeste 15 Oeste 0 925.5 0.2 35
2017-10-04 18:00:00 27.4 8 Oeste 19 Oeste 0 925.2 -0.6 30
2017-10-04 17:00:00 28.6 7 Noroeste 17 Noroeste 0 925.1 -1.1 30
2017-10-04 16:00:00 28.2 5 Nordeste 13 Este 0 925.3 -1.4 24
2017-10-04 15:00:00 27.1 5 Este 13 Este 0 925.8 -1.1 30
2017-10-04 14:00:00 25 7 Este 22 Sudeste 0 926.2 -0.6 35
2017-10-04 13:00:00 22.4 10 Este 17 Este 0 926.7 0.3 42
2017-10-04 12:00:00 19.8 7 Este 17 Nordeste 0 926.9 1 49
2017-10-04 11:00:00 17.7 6 Este 14 Este 0 926.8 1 58
2017-10-04 10:00:00 15 3 Este 7 Oeste 0 926.4 0.8 70
2017-10-04 09:00:00 11.1 5 Noroeste 8 Oeste 0 925.9 0.5 83
2017-10-04 08:00:00 10.9 4 Noroeste 8 Sudoeste 0 925.8 0.3 83
2017-10-04 07:00:00 11.3 5 Sudoeste 8 Sudoeste 0 925.6 -0.5 81
2017-10-04 06:00:00 10.7 5 Noroeste 12 Noroeste 0 925.4 -1 83
2017-10-04 05:00:00 10.4 7 Norte 13 Noroeste 0 925.5 -1 81
2017-10-04 04:00:00 10.9 8 Noroeste 15 Noroeste 0 926.1 -0.8 80
2017-10-04 03:00:00 11.8 5 Noroeste 15 Noroeste 0 926.4 -0.5 79
2017-10-04 02:00:00 12.2 10 Noroeste 15 Noroeste 0 926.5 -0.4 75
2017-10-04 01:00:00 12.8 7 Noroeste 17 Noroeste 0 926.9 0.5 74
2017-10-04 00:00:00 14.3 11 Noroeste 22 Noroeste 0 926.9 1 70
2017-10-03 23:00:00 15.3 10 Noroeste 21 Oeste 0 926.9 1.4 71
2017-10-03 22:00:00 17.3 10 Oeste 22 Noroeste 0 926.4 1.1 70
2017-10-03 21:00:00 18.9 9 Oeste 20 Oeste 0 925.9 0.2 53
2017-10-03 20:00:00 20.7 10 Oeste 23 Oeste 0 925.5 -0.3 37
2017-10-03 19:00:00 22.8 9 Oeste 22 Oeste 0 925.3 -0.7 32
2017-10-03 18:00:00 25.3 9 Oeste 23 Oeste 0 925.7 -0.6 32
2017-10-03 17:00:00 26.6 10 Noroeste 24 Noroeste 0 925.8 -1.7 22
2017-10-03 16:00:00 27.2 9 Oeste 22 Noroeste 0 926 -1.4 20
2017-10-03 15:00:00 26.4 6 Oeste 17 Oeste 0 926.3 -1.7 26
2017-10-03 14:00:00 24.9 3 Sudoeste 14 Nordeste 0 927.5 -0.3 50
2017-10-03 13:00:00 23 7 Este 13 Este 0 927.4 -0.2 56
2017-10-03 12:00:00 20.6 3 Noroeste 11 Oeste 0 928 0.6 66
2017-10-03 11:00:00 18 6 Oeste 13 Noroeste 0 927.8 0.5 68
2017-10-03 10:00:00 15 5 Noroeste 16 Noroeste 0 927.6 0.4 73
2017-10-03 09:00:00 11.9 8 Noroeste 13 Noroeste 0 927.4 0.2 82
2017-10-03 08:00:00 11.6 6 Oeste 14 Noroeste 0 927.3 -0.2 84
2017-10-03 07:00:00 12.3 9 Noroeste 15 Noroeste 0 927.2 -0.7 85
2017-10-03 06:00:00 12.7 9 Noroeste 15 Noroeste 0 927.2 -1.1 86
2017-10-03 05:00:00 13.6 10 Noroeste 16 Noroeste 0 927.5 -1.1 86
2017-10-03 04:00:00 14.5 7 Noroeste 13 Noroeste 0 927.9 -0.9 87
2017-10-03 03:00:00 15.3 4 Oeste 18 Noroeste 0 928.3 -0.6 83
2017-10-03 02:00:00 16.1 9 Noroeste 18 Noroeste 0 928.6 -0.3 81
2017-10-03 01:00:00 17 11 Noroeste 21 Oeste 0 928.8 0.1 80
2017-10-03 00:00:00 17.8 10 Oeste 19 Oeste 0 928.9 0.5 74
2017-10-02 23:00:00 19.7 9 Oeste 23 Oeste 0 928.9 0.7 71
2017-10-02 22:00:00 20.1 9 Oeste 18 Sudoeste 0 928.7 0.7 63
2017-10-02 21:00:00 20.7 9 Sudoeste 15 Oeste 0 928.4 0.4 56
2017-10-02 20:00:00 23.4 7 Oeste 21 Noroeste 0 928.2 0.1 48
2017-10-02 19:00:00 25.2 10 Noroeste 24 Oeste 0 928 -0.4 40
2017-10-02 18:00:00 27.2 8 Noroeste 30 Oeste 0 928 -1.2 37
2017-10-02 17:00:00 28.3 10 Oeste 21 Oeste 0 928.1 -1.6 36
2017-10-02 16:00:00 28.7 9 Oeste 18 Oeste 0 928.4 -1.7 37
2017-10-02 15:00:00 27.7 4 Sudeste 14 Este 0 929.2 -1.2 38
2017-10-02 14:00:00 26.2 4 Este 13 Este 0 929.7 -0.6 45
2017-10-02 13:00:00 24.5 8 Sudeste 14 Sudeste 0 930.1 0.1 50
2017-10-02 12:00:00 22 6 Este 12 Sudeste 0 930.4 0.7 58
2017-10-02 11:00:00 19 3 Oeste 8 Norte 0 930.3 0.6 68
2017-10-02 10:00:00 16.5 4 Noroeste 11 Noroeste 0 930 0.4 80
2017-10-02 09:00:00 13.1 5 Noroeste 10 Oeste 0 929.7 0.1 89
2017-10-02 08:00:00 12.2 5 Noroeste 11 Noroeste 0 929.7 0.2 88
2017-10-02 07:00:00 13 6 Noroeste 9 Noroeste 0 929.6 -0.3 87
2017-10-02 06:00:00 13.1 3 Norte 9 Noroeste 0 929.6 -0.2 85
2017-10-02 05:00:00 13.4 7 Noroeste 12 Noroeste 0 929.5 -0.6 83
2017-10-02 04:00:00 13.5 5 Noroeste 14 Oeste 0 929.9 -0.2 81
2017-10-02 03:00:00 13.6 8 Noroeste 14 Noroeste 0 929.8 -0.2 83
2017-10-02 02:00:00 14.2 7 Oeste 13 Noroeste 0 930.1 0 82
2017-10-02 01:00:00 14.3 5 Oeste 13 Oeste 0 930.1 0.1 81
2017-10-02 00:00:00 15.8 5 Oeste 18 Noroeste 0 930 0.6 78
2017-10-01 23:00:00 16.1 7 Oeste 20 Oeste 0 930.1 0.8 76
2017-10-01 22:00:00 17.1 10 Oeste 18 Oeste 0 930 1 72
2017-10-01 21:00:00 17.7 7 Oeste 19 Oeste 0 929.4 0.6 71
2017-10-01 20:00:00 19 7 Oeste 20 Noroeste 0 929.3 0.6 65
2017-10-01 19:00:00 20.6 9 Oeste 23 Noroeste 0 929 0 56
2017-10-01 18:00:00 22.4 9 Noroeste 23 Oeste 0 928.8 -0.7 52
2017-10-01 17:00:00 23 6 Oeste 21 Oeste 0 928.7 -0.8 51
2017-10-01 16:00:00 21.8 7 Oeste 18 Oeste 0 929 -0.9 55
2017-10-01 15:00:00 22.2 6 Noroeste 23 Norte 0 929.5 -0.4 55
2017-10-01 14:00:00 21.5 6 Oeste 15 Oeste 0 929.5 -0.2 58
2017-10-01 13:00:00 18.1 5 Oeste 14 Oeste 0 929.9 0.7 71
2017-10-01 12:00:00 16.8 6 Oeste 15 Oeste 0 929.9 0.7 76
2017-10-01 11:00:00 14.6 5 Oeste 12 Oeste 0 929.7 1.4 84
2017-10-01 10:00:00 13.1 6 Noroeste 12 Oeste 0 929.2 0.7 89
2017-10-01 09:00:00 12.4 5 Oeste 13 Oeste 0 929.2 1.4 93
2017-10-01 08:00:00 12 4 Sudoeste 13 Oeste 0 928.3 0.2 93
2017-10-01 07:00:00 10.9 3 Oeste 11 Oeste 0 928.5 0.2 92
2017-10-01 06:00:00 11.2 3 Oeste 9 Noroeste 0 927.8 -0.4 91
2017-10-01 05:00:00 12 4 Oeste 14 Oeste 0 928.1 -0.3 89
2017-10-01 04:00:00 12.6 6 Oeste 14 Oeste 0 928.3 -0.1 90
2017-10-01 03:00:00 12.6 8 Oeste 17 Oeste 0 928.2 0.1 90
2017-10-01 02:00:00 13.2 8 Oeste 15 Oeste 0 928.4 0.4 87
2017-10-01 01:00:00 13.1 5 Oeste 17 Oeste 0 928.4 -0.1 86
2017-10-01 00:00:00 12.7 7 Oeste 17 Oeste 0 928.1 0.2 81
2017-09-30 23:00:00 13.1 6 Oeste 16 Noroeste 0 928 1 78
2017-09-30 22:00:00 13.8 7 Oeste 15 Oeste 0 928.5 1.4 72
2017-09-30 21:00:00 14.6 8 Oeste 21 Norte 0 927.9 1.4 65
2017-09-30 20:00:00 15.8 9 Noroeste 28 Oeste 0 927 0.5 59
2017-09-30 19:00:00 17.2 11 Noroeste 33 Oeste 0 927.1 1 54
2017-09-30 18:00:00 18.4 12 Oeste 32 Oeste 0 926.5 -0.3 48
2017-09-30 17:00:00 19.2 11 Noroeste 32 Oeste 0 926.5 -0.5 48
2017-09-30 16:00:00 19.4 12 Oeste 26 Noroeste 0 926.1 -1 45
2017-09-30 15:00:00 18.8 13 Oeste 28 Oeste 0 926.8 -0.8 51
2017-09-30 14:00:00 18 10 Oeste 29 Noroeste 0 927 0 57
2017-09-30 13:00:00 16.9 10 Noroeste 25 Oeste 0 927.1 0.3 65
2017-09-30 12:00:00 15.8 9 Noroeste 21 Noroeste 0 927.6 1 75
2017-09-30 11:00:00 14.6 11 Noroeste 24 Oeste 0 927 0.9 82
2017-09-30 10:00:00 13.8 6 Noroeste 16 Oeste 0 926.8 0.8 88
2017-09-30 09:00:00 13.7 6 Oeste 14 Oeste 0 926.6 0.5 90
2017-09-30 08:00:00 14 3 Oeste 6 Oeste 0 926.1 0.1 88
2017-09-30 07:00:00 14.1 3 Oeste 7 Oeste 0 926 -0.3 88
2017-09-30 06:00:00 14.1 3 Oeste 6 Oeste 0 926.1 -0.5 88
2017-09-30 05:00:00 14 2 Oeste 9 Noroeste 0 926 -0.7 87
2017-09-30 04:00:00 14.2 5 Noroeste 11 Noroeste 0 926.3 -0.7 88
2017-09-30 03:00:00 14.4 5 Oeste 13 Noroeste 0 926.6 -0.6 88
2017-09-30 02:00:00 14.5 6 Noroeste 15 Noroeste 0 926.7 -0.2 88
2017-09-30 01:00:00 14.8 5 Oeste 17 Oeste 0 927 -0.1 85
2017-09-30 00:00:00 15 6 Oeste 20 Oeste 0 927.2 0.8 84
2017-09-29 23:00:00 15.2 8 Oeste 19 Oeste 0 926.9 0.4 82
2017-09-29 22:00:00 15.9 8 Oeste 14 Noroeste 0 927.1 0.4 81
2017-09-29 21:00:00 16.1 2 Sudoeste 14 Oeste 0 926.4 0 77
2017-09-29 20:00:00 17.8 8 Oeste 23 Oeste 0 926.5 0.4 73
2017-09-29 19:00:00 19.4 10 Oeste 25 Noroeste 0 926.7 0.5 67
2017-09-29 18:00:00 20.3 13 Noroeste 28 Oeste 0 926.4 -0.1 60
2017-09-29 17:00:00 22.1 10 Oeste 24 Noroeste 0 926.1 -0.9 53
2017-09-29 16:00:00 22.6 9 Oeste 21 Noroeste 0 926.2 -1 50
2017-09-29 15:00:00 22.7 9 Noroeste 21 Noroeste 0 926.5 -1 47
2017-09-29 14:00:00 23.3 9 Oeste 23 Oeste 0 927 -0.5 42
2017-09-29 13:00:00 21.9 11 Este 19 Sudeste 0 927.2 -0.2 40
2017-09-29 12:00:00 20.3 4 Nordeste 10 Noroeste 0 927.5 0.5 47
2017-09-29 11:00:00 17.1 3 Este 13 Oeste 0 927.5 0.4 61
2017-09-29 10:00:00 12.8 5 Noroeste 16 Noroeste 0 927.4 0.7 75
2017-09-29 09:00:00 11.6 7 Noroeste 11 Noroeste 0 927 0.7 77
2017-09-29 08:00:00 9.5 4 Noroeste 15 Oeste 0 927.1 0.8 81
2017-09-29 07:00:00 9.7 8 Noroeste 15 Oeste 0 926.7 0.1 80
2017-09-29 06:00:00 10.3 8 Noroeste 14 Noroeste 0 926.3 -0.7 78
2017-09-29 05:00:00 10.9 7 Noroeste 14 Noroeste 0 926.3 -1 76
2017-09-29 04:00:00 11.3 9 Noroeste 15 Noroeste 0 926.6 -0.8 76
2017-09-29 03:00:00 11.8 6 Oeste 13 Noroeste 0 927 -0.4 75
2017-09-29 02:00:00 11.7 8 Noroeste 17 Noroeste 0 927.3 -0.2 78
2017-09-29 01:00:00 13.2 7 Noroeste 14 Noroeste 0 927.4 0.3 73
2017-09-29 00:00:00 14.7 9 Noroeste 17 Oeste 0 927.4 0.9 73
2017-09-28 23:00:00 15.4 8 Oeste 20 Oeste 0 927.5 1.3 72
2017-09-28 22:00:00 17.7 12 Oeste 23 Oeste 0 927.1 1.3 66
2017-09-28 21:00:00 18.9 11 Oeste 20 Oeste 0 926.5 1.1 60
2017-09-28 20:00:00 21.3 10 Oeste 22 Oeste 0 926.2 0.6 51
2017-09-28 19:00:00 23.4 9 Noroeste 22 Sudoeste 0 925.8 0.1 45
2017-09-28 18:00:00 25.9 8 Oeste 24 Sur 0 925.4 -0.7 31
2017-09-28 17:00:00 26.3 4 Sudoeste 27 Oeste 0 925.6 -0.9 24
2017-09-28 16:00:00 26.8 12 Sudoeste 27 Sudoeste 0 925.7 -0.9 18
2017-09-28 15:00:00 26.8 9 Sudoeste 24 Sudoeste 0 926.1 -1.1 19
2017-09-28 14:00:00 25.9 10 Sudoeste 22 Sur 0 926.5 -0.7 26
2017-09-28 13:00:00 22.9 5 Este 11 Sudeste 0 926.6 -0.4 44
2017-09-28 12:00:00 19.7 5 Este 13 Este 0 927.2 0.5 57
2017-09-28 11:00:00 17.1 4 Este 9 Sudeste 0 927.2 0.9 67
2017-09-28 10:00:00 14.4 4 Noroeste 11 Oeste 0 927 1 78
2017-09-28 09:00:00 11.2 6 Noroeste 10 Oeste 0 926.7 0.9 86
2017-09-28 08:00:00 10.4 8 Noroeste 11 Noroeste 0 926.3 0.4 88
2017-09-28 07:00:00 10.2 6 Noroeste 11 Noroeste 0 926 0 86
2017-09-28 06:00:00 10.5 7 Noroeste 12 Noroeste 0 925.8 -0.5 86
2017-09-28 05:00:00 10.7 7 Noroeste 13 Noroeste 0 925.9 -0.2 86
2017-09-28 04:00:00 11.2 8 Noroeste 12 Oeste 0 926 -0.1 87
2017-09-28 03:00:00 11.7 8 Noroeste 12 Noroeste 0 926.3 0.3 86
2017-09-28 02:00:00 12.6 8 Noroeste 13 Noroeste 0 926.1 0.4 87
2017-09-28 01:00:00 13.1 7 Noroeste 13 Noroeste 0 926.1 0.6 86
2017-09-28 00:00:00 14.2 4 Oeste 16 Oeste 0 926 0.9 83
2017-09-27 23:00:00 15.9 9 Oeste 19 Oeste 0 925.7 1.2 80
2017-09-27 22:00:00 16.9 12 Oeste 22 Oeste 0 925.5 1.7 75
2017-09-27 21:00:00 18.2 10 Oeste 21 Oeste 0 925.1 1.5 68
2017-09-27 20:00:00 20 8 Oeste 19 Oeste 0 924.5 1 58
2017-09-27 19:00:00 22 8 Oeste 19 Noroeste 0 923.8 0 45
2017-09-27 18:00:00 24.2 9 Noroeste 20 Noroeste 0 923.6 -0.3 36
2017-09-27 17:00:00 24.8 5 Noroeste 19 Noroeste 0 923.5 -0.7 31
2017-09-27 16:00:00 24.7 6 Noroeste 23 Oeste 0 923.8 -0.8 32
2017-09-27 15:00:00 24.4 6 Noroeste 17 Noroeste 0 923.9 -0.9 35
2017-09-27 14:00:00 22.1 6 Este 21 Este 0 924.2 -0.5 37
2017-09-27 13:00:00 21 3 Nordeste 11 Noroeste 0 924.6 0 42
2017-09-27 12:00:00 17.9 6 Sudeste 11 Sudeste 0 924.8 0.5 50
2017-09-27 11:00:00 15 4 Este 12 Noroeste 0 924.7 0.6 59
2017-09-27 10:00:00 12.3 4 Noroeste 11 Noroeste 0 924.6 0.5 66
2017-09-27 09:00:00 8.4 8 Noroeste 14 Noroeste 0 924.3 0.2 76
2017-09-27 08:00:00 7.2 7 Noroeste 14 Noroeste 0 924.1 0 80
2017-09-27 07:00:00 7.4 8 Noroeste 14 Oeste 0 924.1 0 82
2017-09-27 06:00:00 7.7 8 Noroeste 14 Noroeste 0 924.1 -0.2 83
2017-09-27 05:00:00 8.4 8 Noroeste 14 Noroeste 0 924.1 0 83
2017-09-27 04:00:00 8.8 9 Noroeste 15 Noroeste 0 924.1 -0.4 82
2017-09-27 03:00:00 9.2 9 Noroeste 14 Noroeste 0 924.3 -0.5 82
2017-09-27 02:00:00 9.8 9 Noroeste 15 Noroeste 0 924.1 -0.8 79
2017-09-27 01:00:00 10.3 8 Noroeste 15 Noroeste 0 924.5 -0.3 79
2017-09-27 00:00:00 11.3 8 Noroeste 16 Oeste 0 924.8 0.3 75
2017-09-26 23:00:00 12.9 9 Oeste 22 Oeste 0 924.9 0.6 69
2017-09-26 22:00:00 14.3 11 Oeste 21 Oeste 0 924.8 0.9 64
2017-09-26 21:00:00 15.4 9 Oeste 19 Oeste 0 924.5 0.9 59
2017-09-26 20:00:00 18.1 7 Oeste 20 Oeste 0 924.3 0.5 49
2017-09-26 19:00:00 20 8 Oeste 26 Oeste 0 923.9 -0.2 40
2017-09-26 18:00:00 22.3 11 Oeste 24 Noroeste 0 923.6 -1 40
2017-09-26 17:00:00 22.6 11 Oeste 25 Oeste 0 923.8 -1.5 40
2017-09-26 16:00:00 23 5 Oeste 20 Oeste 0 924.1 -1.6 40
2017-09-26 15:00:00 22.3 7 Noroeste 15 Noroeste 0 924.6 -1.4 42
2017-09-26 14:00:00 20.3 5 Noroeste 12 Este 0 925.3 -0.7 45
2017-09-26 13:00:00 18 5 Sudeste 19 Nordeste 0 925.7 -0.1 52
2017-09-26 12:00:00 16 5 Nordeste 15 Nordeste 0 926 0.2 59
2017-09-26 11:00:00 13.2 4 Norte 10 Noroeste 0 926 0.2 69
2017-09-26 10:00:00 10.1 5 Noroeste 11 Noroeste 0 925.8 0 80
2017-09-26 09:00:00 6.9 7 Noroeste 13 Noroeste 0 925.8 -0.2 89
2017-09-26 08:00:00 5.9 6 Noroeste 12 Noroeste 0 925.8 -0.6 89
2017-09-26 07:00:00 6.3 7 Noroeste 11 Noroeste 0 925.8 -0.7 89
2017-09-26 06:00:00 6.7 8 Noroeste 12 Noroeste 0 926 -0.8 88
2017-09-26 05:00:00 7.1 6 Noroeste 14 Noroeste 0 926.4 -0.3 86
2017-09-26 04:00:00 7.3 9 Noroeste 16 Noroeste 0 926.5 -0.3 86
2017-09-26 03:00:00 8 8 Noroeste 16 Noroeste 0 926.8 -0.1 84
2017-09-26 02:00:00 8.4 8 Noroeste 18 Oeste 0 926.7 -0.2 82
2017-09-26 01:00:00 9.2 8 Noroeste 15 Oeste 0 926.8 0 81
2017-09-26 00:00:00 9.6 9 Noroeste 14 Oeste 0 926.9 0 79
2017-09-25 23:00:00 10.4 6 Oeste 12 Oeste 0 926.9 0.1 76
2017-09-25 22:00:00 11.7 5 Oeste 14 Oeste 0 926.8 -0.1 70
2017-09-25 21:00:00 12.9 6 Oeste 13 Sudoeste 0 926.9 0.2 66
2017-09-25 20:00:00 15.6 5 Oeste 17 Norte 0 926.8 -0.2 56
2017-09-25 19:00:00 16.8 9 Noroeste 24 Noroeste 0 926.9 -0.4 51
2017-09-25 18:00:00 18.9 9 Noroeste 26 Oeste 0 926.7 -1.3 45
2017-09-25 17:00:00 19 9 Noroeste 24 Oeste 0 927 -1.3 47
2017-09-25 16:00:00 19.2 9 Noroeste 19 Noroeste 0 927.3 -1 46
2017-09-25 15:00:00 17.5 7 Noroeste 21 Norte 0 928 -0.1 53
2017-09-25 14:00:00 17 9 Noroeste 23 Oeste 0 928.3 0.3 60
2017-09-25 13:00:00 16.6 8 Oeste 23 Noroeste 0 928.3 0.8 62
2017-09-25 12:00:00 15.5 9 Oeste 20 Oeste 0 928.1 1 68
2017-09-25 11:00:00 14.6 7 Noroeste 13 Noroeste 0 928 1.3 77
2017-09-25 10:00:00 13.6 4 Oeste 10 Oeste 0 927.5 1.1 87
2017-09-25 09:00:00 11.2 5 Noroeste 12 Noroeste 0 927.1 1 92
2017-09-25 08:00:00 11.4 3 Oeste 10 Oeste 0 926.7 0.7 91
2017-09-25 07:00:00 11.5 5 Oeste 10 Oeste 0 926.4 0.2 92
2017-09-25 06:00:00 11.7 4 Oeste 9 Oeste 0.4 926.1 -0.2 91
2017-09-25 05:00:00 11.4 2 Este 4 Este 0 926 -0.5 91
2017-09-25 04:00:00 11.5 3 Sudeste 8 Norte 0.2 926.2 -0.4 90
2017-09-25 03:00:00 11.3 4 Oeste 16 Oeste 0 926.3 -0.1 91
2017-09-25 02:00:00 10.9 8 Noroeste 14 Noroeste 0 926.5 0.4 88
2017-09-25 01:00:00 10.3 7 Oeste 18 Noroeste 0 926.6 0.6 89
2017-09-25 00:00:00 11.2 9 Oeste 22 Oeste 0 926.4 1.4 87
2017-09-24 23:00:00 12.5 12 Oeste 26 Oeste 0 926.1 0.9 86
2017-09-24 22:00:00 14.2 10 Oeste 20 Oeste 0.4 926 1.3 88
2017-09-24 21:00:00 15 7 Noroeste 27 Oeste 0.2 925 1 86
2017-09-24 20:00:00 15.5 14 Oeste 39 Oeste 0 925.2 1.5 81
2017-09-24 19:00:00 18.5 17 Oeste 38 Oeste 0 924.7 0.7 60
2017-09-24 18:00:00 23.1 12 Oeste 43 Noroeste 0 924 -0.2 31
2017-09-24 17:00:00 24.2 11 Oeste 28 Oeste 0 923.7 -0.7 23
2017-09-24 16:00:00 25.1 14 Oeste 35 Oeste 0 924 -0.5 22
2017-09-24 15:00:00 25.4 14 Oeste 31 Sudoeste 0 924.2 -0.6 18
2017-09-24 14:00:00 24.5 5 Sudeste 15 Oeste 0 924.4 -0.6 25
2017-09-24 13:00:00 21.6 5 Sudeste 13 Este 0 924.5 -0.1 29
2017-09-24 12:00:00 18.6 4 Este 11 Este 0 924.8 0.4 35
2017-09-24 11:00:00 15.5 4 Nordeste 9 Este 0 925 0.8 37
2017-09-24 10:00:00 13.4 2 Norte 11 Noroeste 0 924.6 0.6 46
2017-09-24 09:00:00 9.7 6 Noroeste 11 Noroeste 0 924.4 0.5 43
2017-09-24 08:00:00 7.6 7 Noroeste 12 Noroeste 0 924.2 0.2 49
2017-09-24 07:00:00 8.2 8 Noroeste 16 Noroeste 0 924 -0.1 43
2017-09-24 06:00:00 7.9 8 Noroeste 17 Noroeste 0 923.9 -0.7 45
2017-09-24 05:00:00 7.4 12 Noroeste 18 Noroeste 0 924 -0.7 48
2017-09-24 04:00:00 8 10 Noroeste 14 Noroeste 0 924.1 -0.6 50
2017-09-24 03:00:00 8.6 10 Noroeste 16 Noroeste 0 924.6 -0.3 53
2017-09-24 02:00:00 9.4 9 Noroeste 15 Noroeste 0 924.7 -0.1 58
2017-09-24 01:00:00 10.2 9 Noroeste 13 Oeste 0 924.7 0.1 62
2017-09-24 00:00:00 11.8 8 Noroeste 14 Oeste 0 924.9 0.6 69
2017-09-23 23:00:00 13.8 6 Oeste 13 Oeste 0 924.8 0.8 72
2017-09-23 22:00:00 15.4 6 Noroeste 9 Sur 0 924.6 0.8 68
2017-09-23 21:00:00 16.4 3 Nordeste 21 Noroeste 0 924.3 0.7 64
2017-09-23 20:00:00 18 12 Oeste 28 Noroeste 0 924 0.8 57
2017-09-23 19:00:00 19.8 10 Oeste 31 Oeste 0 923.8 0.5 52
2017-09-23 18:00:00 22.1 12 Noroeste 36 Noroeste 0 923.6 0.3 47
2017-09-23 17:00:00 24.7 8 Sudoeste 27 Sudoeste 0 923.2 -0.2 23
2017-09-23 16:00:00 24.6 13 Oeste 27 Sudoeste 0 923.3 -0.3 27
2017-09-23 15:00:00 25.5 12 Sudoeste 27 Sudoeste 0 923.3 -0.3 23
2017-09-23 14:00:00 24.9 7 Sudoeste 23 Sudoeste 0 923.4 -0.1 24
2017-09-23 13:00:00 21.9 6 Nordeste 15 Nordeste 0 923.6 0.3 44
2017-09-23 12:00:00 19.1 6 Este 13 Este 0 923.6 0.6 57
2017-09-23 11:00:00 16.5 5 Este 13 Sudeste 0 923.5 0.9 69
2017-09-23 10:00:00 14.2 4 Este 10 Sudeste 0 923.3 1.1 77
2017-09-23 09:00:00 11.4 5 Oeste 9 Noroeste 0 923 0.8 88
2017-09-23 08:00:00 10 7 Norte 10 Nordeste 0 922.6 0 91
2017-09-23 07:00:00 10.5 4 Este 8 Norte 0 922.2 -0.8 91
2017-09-23 06:00:00 10.1 3 Nordeste 9 Nordeste 0 922.2 -1.1 91
2017-09-23 05:00:00 9.5 5 Noroeste 14 Noroeste 0 922.6 -0.7 90
2017-09-23 04:00:00 9.5 8 Noroeste 12 Noroeste 0 923 -0.6 89
2017-09-23 03:00:00 10.3 5 Noroeste 14 Noroeste 0 923.3 -0.7 86
2017-09-23 02:00:00 10.8 8 Noroeste 13 Noroeste 0 923.3 -0.6 86
2017-09-23 01:00:00 11.5 9 Noroeste 13 Noroeste 0 923.6 -0.2 85
2017-09-23 00:00:00 12.4 7 Noroeste 15 Noroeste 0 924 0.8 84
2017-09-22 23:00:00 13.2 7 Noroeste 13 Oeste 0 923.9 0.9 82
2017-09-22 22:00:00 14.3 7 Noroeste 16 Oeste 0 923.8 1 78
2017-09-22 21:00:00 16.1 7 Oeste 17 Oeste 0 923.2 0.4 72
2017-09-22 20:00:00 18 8 Oeste 21 Noroeste 0 923 0.2 63
2017-09-22 19:00:00 19.2 9 Noroeste 21 Oeste 0 922.8 -0.5 55
2017-09-22 18:00:00 20.9 10 Noroeste 26 Noroeste 0 922.8 -1 49
2017-09-22 17:00:00 22.4 10 Oeste 23 Noroeste 0 922.8 -1.6 45
2017-09-22 16:00:00 22.2 10 Oeste 20 Oeste 0 923.3 -1.5 47
2017-09-22 15:00:00 21.8 5 Noroeste 17 Oeste 0 923.8 -1.5 51
2017-09-22 14:00:00 20.3 5 Nordeste 13 Noroeste 0 924.4 -0.7 56
2017-09-22 13:00:00 17.9 4 Nordeste 12 Nordeste 0 924.8 0.2 65
2017-09-22 12:00:00 14.1 4 Sur 9 Sudeste 0 925.3 0.8 79
2017-09-22 11:00:00 12.3 4 Este 12 Este 0 925.1 0.7 86
2017-09-22 10:00:00 11.9 3 Este 10 Sur 0 924.6 0.8 89
2017-09-22 09:00:00 11.3 3 Sudoeste 9 Sudoeste 0 924.5 0.5 90
2017-09-22 08:00:00 11.1 3 Oeste 9 Sudeste 0 924.4 0 92
2017-09-22 07:00:00 10.8 5 Este 12 Este 0 923.8 -0.4 93
2017-09-22 06:00:00 11 2 Sudoeste 13 Oeste 0 924 -0.2 92
2017-09-22 05:00:00 11.1 6 Oeste 15 Oeste 0 924.4 -0.1 91
2017-09-22 04:00:00 11.1 4 Noroeste 9 Oeste 0 924.2 -0.2 91
2017-09-22 03:00:00 11 3 Sudeste 14 Sudoeste 0 924.2 -0.1 91
2017-09-22 02:00:00 11.2 7 Oeste 22 Oeste 0 924.5 0.1 92
2017-09-22 01:00:00 11.1 9 Oeste 21 Noroeste 0 924.4 0.3 91
2017-09-22 00:00:00 11.6 9 Oeste 23 Oeste 0 924.3 0.5 90
2017-09-21 23:00:00 12 11 Oeste 24 Oeste 0 924.4 1 89
2017-09-21 22:00:00 12.5 8 Oeste 27 Oeste 0 924.1 1 87
2017-09-21 21:00:00 13.5 13 Oeste 30 Noroeste 0 923.8 0.9 83
2017-09-21 20:00:00 15 12 Oeste 26 Oeste 0 923.4 0.9 78
2017-09-21 19:00:00 17.4 12 Oeste 29 Oeste 0 923.1 0.4 68
2017-09-21 18:00:00 18.3 9 Noroeste 26 Noroeste 0 922.9 0 62
2017-09-21 17:00:00 20.8 11 Oeste 27 Oeste 0 922.5 -0.4 53
2017-09-21 16:00:00 20.2 7 Oeste 30 Noroeste 0 922.7 -0.2 54
2017-09-21 15:00:00 20.8 11 Noroeste 29 Norte 0 922.9 -0.2 51
2017-09-21 14:00:00 20.3 12 Oeste 28 Oeste 0 922.9 -0.1 53
2017-09-21 13:00:00 18.1 6 Sudeste 13 Sudeste 0 922.9 0.1 61
2017-09-21 12:00:00 18 4 Noroeste 16 Oeste 0 923.1 0.8 61
2017-09-21 11:00:00 15.5 3 Este 11 Oeste 0 923 1 73
2017-09-21 10:00:00 11.7 5 Noroeste 10 Noroeste 0 922.8 0.9 84
2017-09-21 09:00:00 10.1 6 Noroeste 14 Noroeste 0 922.3 0.3 85
2017-09-21 08:00:00 9.4 6 Noroeste 14 Noroeste 0 922 0 87
2017-09-21 07:00:00 9.8 9 Noroeste 19 Oeste 0 921.9 -0.4 85
2017-09-21 06:00:00 10.4 9 Oeste 19 Oeste 0 922 -0.6 85
2017-09-21 05:00:00 10.1 10 Noroeste 19 Oeste 0 922 -0.7 87
2017-09-21 04:00:00 10.2 8 Noroeste 15 Oeste 0 922.3 -0.8 87
2017-09-21 03:00:00 10.8 6 Noroeste 14 Noroeste 0 922.6 -0.5 84
2017-09-21 02:00:00 11.9 7 Oeste 12 Sudoeste 0 922.7 -0.2 81
2017-09-21 01:00:00 13.7 7 Oeste 18 Oeste 0 923.1 0.4 75
2017-09-21 00:00:00 14.5 10 Oeste 22 Oeste 0 923.1 0.8 69
2017-09-20 23:00:00 15.5 9 Oeste 23 Oeste 0 922.9 0.8 64
2017-09-20 22:00:00 16.4 8 Oeste 26 Sudoeste 0 922.7 0.6 63
2017-09-20 21:00:00 17.9 10 Oeste 23 Sudoeste 0 922.3 0.3 56
2017-09-20 20:00:00 20.2 10 Oeste 24 Oeste 0 922.1 -0.4 43
2017-09-20 19:00:00 22.3 8 Oeste 19 Noroeste 0 922.1 -0.9 36
2017-09-20 18:00:00 24.7 8 Noroeste 21 Noroeste 0 922 -1.5 29
2017-09-20 17:00:00 24.6 7 Norte 21 Oeste 0 922.5 -1.6 33
2017-09-20 16:00:00 24.8 10 Oeste 20 Oeste 0 923 -1.5 34
2017-09-20 15:00:00 24.7 9 Norte 18 Norte 0 923.5 -1.5 33
2017-09-20 14:00:00 23.2 4 Nordeste 11 Este 0 924.1 -1.2 38
2017-09-20 13:00:00 20.3 5 Este 11 Este 0 924.5 -0.7 48
2017-09-20 12:00:00 17.6 5 Nordeste 11 Nordeste 0 925 -0.3 55
2017-09-20 11:00:00 14.7 4 Este 9 Este 0 925.3 0 66
2017-09-20 10:00:00 11.5 4 Noroeste 10 Noroeste 0 925.2 -0.2 74
2017-09-20 09:00:00 7.6 7 Noroeste 12 Noroeste 0 925.3 -0.3 81
2017-09-20 08:00:00 6 8 Noroeste 13 Noroeste 0 925.3 -0.5 82
2017-09-20 07:00:00 6.3 8 Noroeste 13 Noroeste 0 925.4 -0.8 80
2017-09-20 06:00:00 6.7 9 Noroeste 13 Noroeste 0 925.6 -1 80
2017-09-20 05:00:00 6.9 8 Noroeste 13 Noroeste 0 925.8 -0.8 78
2017-09-20 04:00:00 7.8 9 Noroeste 13 Noroeste 0 926.2 -0.6 76
2017-09-20 03:00:00 8.8 6 Oeste 15 Oeste 0 926.6 -0.6 74
2017-09-20 02:00:00 9.2 8 Noroeste 16 Noroeste 0 926.6 -0.7 77
2017-09-20 01:00:00 9.7 9 Noroeste 16 Noroeste 0 926.8 -0.5 79
2017-09-20 00:00:00 10.6 7 Noroeste 15 Oeste 0 927.2 0.1 76